KPIM/PIM METAR and TAF weather

Enter ICAO airport designator
Station Type Date Time Source
KPIM METAR 2021/09/22 00:30 UTC NOAA

KPIM 220030Z AUTO 13014G22KT 100V160 1SM +TSRA OVC015 23/21 A3003 RMK AO2 LTG DSNT SE THRU SW T02310209


Station Type Date Time Source
KPIM Decoded METAR 2021/09/22 00:30 UTC NOAA

Station name not available
Sep 21, 2021 - 08:30 PM EDT / 2021.09.22 0030 UTC
Wind: from the SE (130 degrees) at 16 MPH (14 KT) gusting to 25 MPH (22 KT) (direction variable):0
Visibility: 1 mile(s):0
Sky conditions: overcast
Weather: heavy rain with thunder; Lightning observed
Temperature: 73.6 F (23.1 C)
Dew Point: 69.6 F (20.9 C)
Relative Humidity: 87%
Pressure (altimeter): 30.03 in. Hg (1016 hPa)
ob: KPIM 220030Z AUTO 13014G22KT 100V160 1SM +TSRA OVC015 23/21 A3003 RMK AO2 LTG DSNT SE THRU SW T02310209
cycle: 0

Station Type Date Time Source
KPIM TAF UTC NOAA

Error!

Example: see airport list